createdAt,value
2018-06-25T00:02:10.636Z,5.43
2018-06-25T00:04:39.813Z,4.43
2018-06-25T00:07:17.335Z,4.23
2018-06-25T00:09:46.125Z,3.13
2018-06-25T00:12:17.214Z,2.67
2018-06-25T00:14:46.997Z,4.73
2018-06-25T00:17:17.165Z,3.17
2018-06-25T00:19:49.206Z,3.40
2018-06-25T00:22:19.177Z,3.77
2018-06-25T00:24:48.829Z,5.73
2018-06-25T00:27:21.760Z,4.30
2018-06-25T00:29:50.962Z,3.23
2018-06-25T00:32:23.590Z,2.60
2018-06-25T00:34:53.854Z,3.17
2018-06-25T00:37:25.324Z,4.60
2018-06-25T00:39:54.453Z,4.17
2018-06-25T00:42:26.522Z,6.03
2018-06-25T00:44:55.339Z,3.17
2018-06-25T00:47:28.601Z,2.40
2018-06-25T00:49:57.604Z,3.63
2018-06-25T00:52:34.158Z,3.07
2018-06-25T00:55:02.982Z,2.50
2018-06-25T00:57:34.259Z,2.97
2018-06-25T01:00:03.181Z,2.40
2018-06-25T01:02:35.192Z,3.70
2018-06-25T01:05:04.325Z,2.90
2018-06-25T01:07:36.392Z,3.17
2018-06-25T01:10:06.049Z,3.77
2018-06-25T01:12:38.624Z,3.40
2018-06-25T01:15:07.405Z,4.27
2018-06-25T01:17:40.473Z,5.93
2018-06-25T01:20:09.386Z,4.67
2018-06-25T01:22:45.486Z,5.07
2018-06-25T01:25:15.464Z,6.20
2018-06-25T01:27:45.164Z,6.53
2018-06-25T01:30:13.875Z,4.23
2018-06-25T01:32:47.361Z,4.23
2018-06-25T01:35:16.153Z,3.37
2018-06-25T01:37:52.560Z,5.47
2018-06-25T01:40:21.507Z,3.53
2018-06-25T01:42:51.862Z,3.83
2018-06-25T01:45:20.598Z,3.67
2018-06-25T01:47:53.820Z,6.40
2018-06-25T01:50:22.859Z,4.33
2018-06-25T01:52:59.203Z,2.50
2018-06-25T01:55:28.387Z,6.40
2018-06-25T01:57:58.438Z,5.87
2018-06-25T02:00:27.308Z,4.10
2018-06-25T02:03:00.453Z,4.33
2018-06-25T02:05:29.229Z,3.77
2018-06-25T02:08:06.093Z,3.30
2018-06-25T02:10:35.194Z,2.43
2018-06-25T02:13:06.170Z,3.17
2018-06-25T02:15:35.187Z,3.50
2018-06-25T02:18:07.349Z,4.40
2018-06-25T02:20:36.181Z,4.33
2018-06-25T02:23:12.742Z,7.20
2018-06-25T02:25:42.151Z,3.20
2018-06-25T02:28:13.272Z,5.93
2018-06-25T02:30:42.072Z,4.73
2018-06-25T02:33:14.232Z,10.23
2018-06-25T02:35:43.310Z,4.23
2018-06-25T02:38:16.034Z,4.93
2018-06-25T02:40:45.416Z,6.70
2018-06-25T02:43:17.384Z,4.00
2018-06-25T02:45:46.286Z,6.03
2018-06-25T02:48:23.008Z,2.83
2018-06-25T02:50:51.973Z,4.20
2018-06-25T02:53:21.351Z,5.70
2018-06-25T02:55:50.588Z,7.73
2018-06-25T02:58:24.223Z,5.10
2018-06-25T03:00:52.945Z,5.07
2018-06-25T03:03:25.225Z,6.07
2018-06-25T03:05:54.235Z,4.70
2018-06-25T03:08:26.985Z,6.50
2018-06-25T03:10:55.969Z,5.67
2018-06-25T03:13:32.085Z,5.33
2018-06-25T03:16:00.832Z,4.87
2018-06-25T03:18:31.523Z,5.50
2018-06-25T03:21:01.307Z,6.53
2018-06-25T03:23:33.730Z,5.13
2018-06-25T03:26:02.775Z,7.93
2018-06-25T03:28:39.212Z,6.23
2018-06-25T03:31:07.972Z,5.70
2018-06-25T03:33:38.274Z,8.33
2018-06-25T03:36:07.177Z,8.00
2018-06-25T03:38:43.331Z,6.93
2018-06-25T03:41:12.298Z,12.57
2018-06-25T03:43:42.514Z,6.70
2018-06-25T03:46:11.625Z,10.87
2018-06-25T03:48:44.278Z,9.73
2018-06-25T03:51:13.137Z,7.57
2018-06-25T03:53:49.696Z,6.20
2018-06-25T03:56:18.870Z,10.00
2018-06-25T03:58:48.599Z,8.40
2018-06-25T04:01:17.879Z,6.83
2018-06-25T04:03:54.393Z,6.50
2018-06-25T04:06:23.142Z,6.80
2018-06-25T04:08:52.622Z,8.33
2018-06-25T04:11:21.433Z,7.67
2018-06-25T04:13:57.865Z,7.17
2018-06-25T04:16:26.780Z,7.63
2018-06-25T04:19:03.876Z,10.03
2018-06-25T04:21:35.423Z,6.17
2018-06-25T04:24:04.331Z,6.57
2018-06-25T04:26:33.700Z,6.33
2018-06-25T04:29:04.277Z,6.53
2018-06-25T04:31:33.030Z,7.23
2018-06-25T04:34:04.745Z,5.63
2018-06-25T04:36:33.767Z,6.13
2018-06-25T04:39:08.408Z,5.50
2018-06-25T04:41:37.146Z,6.13
2018-06-25T04:44:09.229Z,3.97
2018-06-25T04:46:37.955Z,4.27
2018-06-25T04:49:12.029Z,4.57
2018-06-25T04:51:41.034Z,4.60
2018-06-25T04:54:13.481Z,5.60
2018-06-25T04:56:42.217Z,5.83
2018-06-25T04:59:15.363Z,7.67
2018-06-25T05:01:44.388Z,5.27
2018-06-25T05:04:20.270Z,6.37
2018-06-25T05:06:49.237Z,5.53
2018-06-25T05:09:21.706Z,6.00
2018-06-25T05:11:50.505Z,7.37
2018-06-25T05:14:28.264Z,5.50
2018-06-25T05:16:57.274Z,5.23
2018-06-25T05:19:26.724Z,4.83
2018-06-25T05:21:55.772Z,4.23
2018-06-25T05:24:27.881Z,4.90
2018-06-25T05:26:56.649Z,4.20
2018-06-25T05:29:29.717Z,4.27
2018-06-25T05:31:58.818Z,5.77
2018-06-25T05:34:34.610Z,4.13
2018-06-25T05:37:03.453Z,6.93
2018-06-25T05:39:34.253Z,5.63
2018-06-25T05:42:03.592Z,6.07
2018-06-25T05:44:36.049Z,5.30
2018-06-25T05:47:04.764Z,6.90
2018-06-25T05:49:40.858Z,6.83
2018-06-25T05:52:10.692Z,5.97
2018-06-25T05:54:41.203Z,5.50
2018-06-25T05:57:10.072Z,5.97
2018-06-25T05:59:43.289Z,6.83
2018-06-25T06:02:12.093Z,6.27
2018-06-25T06:04:44.629Z,5.07
2018-06-25T06:07:14.266Z,9.30
2018-06-25T06:09:50.767Z,6.80
2018-06-25T06:12:19.674Z,9.33
2018-06-25T06:14:49.349Z,10.83
2018-06-25T06:17:18.299Z,8.60
2018-06-25T06:19:51.558Z,12.37
2018-06-25T06:22:20.716Z,13.13
2018-06-25T06:24:54.523Z,15.07
2018-06-25T06:27:23.489Z,13.27
2018-06-25T06:30:00.403Z,15.03
2018-06-25T06:32:29.265Z,14.23
2018-06-25T06:34:59.484Z,12.67
2018-06-25T06:37:28.259Z,11.17
2018-06-25T06:40:05.650Z,14.30
2018-06-25T06:42:34.450Z,12.33
2018-06-25T06:45:03.705Z,11.13
2018-06-25T06:47:33.077Z,12.63
2018-06-25T06:50:09.347Z,14.30
2018-06-25T06:52:38.776Z,12.90
2018-06-25T06:55:09.624Z,10.73
2018-06-25T06:57:38.451Z,8.77
2018-06-25T07:00:15.716Z,10.30
2018-06-25T07:02:44.572Z,13.67
2018-06-25T07:05:13.513Z,11.70
2018-06-25T07:07:42.672Z,10.00
2018-06-25T07:10:18.858Z,8.27
2018-06-25T07:12:47.867Z,13.50
2018-06-25T07:15:19.364Z,13.57
2018-06-25T07:17:48.938Z,10.87
2018-06-25T07:20:21.179Z,8.40
2018-06-25T07:22:50.027Z,10.67
2018-06-25T07:25:29.377Z,9.03
2018-06-25T07:27:59.422Z,7.53
2018-06-25T07:30:29.437Z,8.10
2018-06-25T07:32:58.258Z,6.93
2018-06-25T07:35:27.565Z,5.63
2018-06-25T07:37:57.075Z,6.63
2018-06-25T07:40:29.615Z,4.60
2018-06-25T07:42:59.419Z,4.67
2018-06-25T07:45:31.767Z,5.00
2018-06-25T07:48:01.222Z,5.87
2018-06-25T07:50:33.683Z,5.47
2018-06-25T07:53:04.389Z,7.47
2018-06-25T07:55:37.186Z,6.50
2018-06-25T07:58:06.396Z,4.97
2018-06-25T08:00:38.511Z,5.83
2018-06-25T08:03:07.821Z,6.00
2018-06-25T08:05:41.237Z,4.93
2018-06-25T08:08:11.834Z,4.73
2018-06-25T08:10:44.710Z,3.63
2018-06-25T08:13:15.168Z,6.03
2018-06-25T08:15:45.450Z,4.50
2018-06-25T08:18:14.402Z,5.70
2018-06-25T08:20:48.320Z,6.43
2018-06-25T08:23:17.262Z,5.27
2018-06-25T08:25:50.632Z,8.43
2018-06-25T08:28:20.922Z,5.27
2018-06-25T08:30:51.251Z,5.07
2018-06-25T08:33:20.711Z,4.70
2018-06-25T08:36:00.919Z,6.10
2018-06-25T08:38:30.702Z,7.13
2018-06-25T08:41:16.247Z,5.97
2018-06-25T08:43:45.208Z,6.53
2018-06-25T08:46:14.479Z,6.70
2018-06-25T08:48:43.788Z,6.27
2018-06-25T08:51:14.068Z,5.90
2018-06-25T08:53:43.173Z,7.90
2018-06-25T08:56:14.168Z,5.33
2018-06-25T08:58:43.107Z,8.13
2018-06-25T09:01:12.204Z,5.17
2018-06-25T09:03:42.931Z,5.27
2018-06-25T09:06:12.000Z,5.80
2018-06-25T09:08:41.076Z,5.30
2018-06-25T09:11:10.099Z,5.47
2018-06-25T09:13:40.062Z,5.43
2018-06-25T09:16:12.715Z,5.57
2018-06-25T09:18:41.677Z,6.70
2018-06-25T09:21:14.386Z,6.60
2018-06-25T09:23:43.477Z,3.90
2018-06-25T09:26:18.230Z,6.87
2018-06-25T09:28:47.300Z,6.23
2018-06-25T09:31:18.793Z,4.97
2018-06-25T09:33:48.160Z,3.80
2018-06-25T09:36:21.297Z,4.10
2018-06-25T09:38:51.389Z,4.87
2018-06-25T09:41:24.256Z,5.37
2018-06-25T09:43:53.161Z,4.80
2018-06-25T09:46:25.181Z,7.13
2018-06-25T09:48:54.115Z,9.63
2018-06-25T09:51:27.192Z,5.73
2018-06-25T09:53:55.967Z,8.37
2018-06-25T09:56:29.330Z,6.07
2018-06-25T09:59:00.265Z,5.03
2018-06-25T10:01:30.648Z,5.40
2018-06-25T10:04:00.320Z,5.53
2018-06-25T10:06:33.696Z,5.10
2018-06-25T10:09:02.975Z,4.50
2018-06-25T10:11:35.447Z,7.17
2018-06-25T10:14:04.814Z,5.70
2018-06-25T10:16:37.465Z,9.43
2018-06-25T10:19:07.104Z,6.37
2018-06-25T10:21:40.534Z,7.17
2018-06-25T10:24:09.468Z,5.57
2018-06-25T10:26:42.589Z,7.50
2018-06-25T10:29:11.357Z,5.70
2018-06-25T10:31:48.429Z,6.07
2018-06-25T10:34:17.666Z,5.50
2018-06-25T10:36:46.775Z,6.43
2018-06-25T10:39:15.586Z,5.50
2018-06-25T10:41:48.409Z,5.47
2018-06-25T10:44:18.316Z,5.03
2018-06-25T10:46:50.427Z,6.63
2018-06-25T10:49:19.299Z,6.20
2018-06-25T10:51:52.679Z,4.83
2018-06-25T10:54:21.835Z,5.13
2018-06-25T10:56:58.197Z,6.73
2018-06-25T10:59:27.167Z,5.27
2018-06-25T11:01:56.302Z,5.33
2018-06-25T11:04:25.201Z,5.37
2018-06-25T11:06:58.588Z,6.80
2018-06-25T11:09:30.013Z,4.43
2018-06-25T11:12:01.807Z,3.40
2018-06-25T11:14:30.624Z,5.17
2018-06-25T11:17:09.610Z,4.13
2018-06-25T11:19:39.333Z,6.17
2018-06-25T11:22:08.176Z,5.67
2018-06-25T11:24:38.194Z,4.80
2018-06-25T11:27:08.307Z,4.97
2018-06-25T11:29:37.625Z,5.97
2018-06-25T11:32:11.054Z,8.40
2018-06-25T11:34:40.314Z,5.83
2018-06-25T11:37:13.464Z,6.40
2018-06-25T11:39:42.627Z,6.43
2018-06-25T11:42:17.095Z,5.57
2018-06-25T11:44:46.246Z,7.33
2018-06-25T11:47:19.230Z,4.40
2018-06-25T11:49:48.149Z,10.10
2018-06-25T11:52:18.627Z,6.40
2018-06-25T11:54:47.848Z,5.80
2018-06-25T11:57:27.417Z,6.03
2018-06-25T11:59:56.711Z,5.47
2018-06-25T12:02:25.915Z,4.67
2018-06-25T12:04:55.336Z,5.63
2018-06-25T12:07:24.494Z,5.43
2018-06-25T12:09:54.682Z,7.67
2018-06-25T12:12:28.230Z,4.30
2018-06-25T12:15:02.855Z,5.07
2018-06-25T12:17:32.237Z,5.03
2018-06-25T12:20:02.712Z,3.83
2018-06-25T12:22:32.621Z,4.97
2018-06-25T12:25:01.465Z,3.30
2018-06-25T12:27:32.349Z,4.90
2018-06-25T12:30:01.603Z,3.23
2018-06-25T12:32:37.930Z,3.53
2018-06-25T12:35:07.072Z,3.60
2018-06-25T12:37:37.397Z,3.03
2018-06-25T12:43:14.938Z,3.43
2018-06-25T12:45:45.443Z,3.20
2018-06-25T12:48:15.507Z,2.63
2018-06-25T12:50:46.050Z,3.87
2018-06-25T12:53:15.118Z,4.83
2018-06-25T12:55:46.781Z,5.07
2018-06-25T12:58:15.599Z,4.30
2018-06-25T13:00:48.730Z,4.23
2018-06-25T13:03:22.549Z,3.17
2018-06-25T13:05:54.796Z,3.20
2018-06-25T13:08:23.705Z,3.80
2018-06-25T13:10:52.813Z,2.83
2018-06-25T13:13:22.241Z,7.83
2018-06-25T13:15:54.899Z,5.67
2018-06-25T13:18:27.486Z,5.77
2018-06-25T13:21:01.844Z,4.37
2018-06-25T13:23:34.705Z,3.13
2018-06-25T13:26:06.798Z,3.33
2018-06-25T13:28:35.718Z,4.60
2018-06-25T13:31:06.428Z,4.07
2018-06-25T13:33:37.412Z,2.70
2018-06-25T13:36:08.312Z,6.00
2018-06-25T13:38:38.186Z,5.03
2018-06-25T13:41:07.319Z,2.63
2018-06-25T13:43:36.728Z,4.40
2018-06-25T13:46:08.899Z,3.23
2018-06-25T13:48:38.070Z,5.30
2018-06-25T13:53:51.204Z,3.57
2018-06-25T13:56:23.668Z,4.50
2018-06-25T13:58:54.054Z,5.13
2018-06-25T14:01:27.573Z,5.03
2018-06-25T14:03:59.112Z,3.90
2018-06-25T14:06:29.741Z,4.47
2018-06-25T14:09:00.776Z,4.47
2018-06-25T14:11:30.328Z,3.23
2018-06-25T14:13:59.773Z,6.03
2018-06-25T14:16:31.281Z,5.03
2018-06-25T14:19:04.745Z,3.97
2018-06-25T14:21:37.968Z,4.00
2018-06-25T14:24:14.268Z,6.10
2018-06-25T14:26:44.737Z,4.00
2018-06-25T14:29:26.961Z,4.77
2018-06-25T14:32:00.418Z,4.20
2018-06-25T14:34:30.273Z,5.80
2018-06-25T14:37:03.316Z,3.20
2018-06-25T14:44:01.501Z,3.57
2018-06-25T14:46:34.203Z,5.70
2018-06-25T14:49:03.259Z,5.40
2018-06-25T14:51:39.784Z,8.13
2018-06-25T14:54:08.604Z,3.57
2018-06-25T14:56:39.198Z,3.50
2018-06-25T14:59:08.219Z,4.53
2018-06-25T15:01:46.284Z,5.47
2018-06-25T15:04:16.740Z,5.90
2018-06-25T15:06:45.732Z,6.63
2018-06-25T15:09:15.908Z,3.07
2018-06-25T15:11:48.590Z,5.00
2018-06-25T15:14:19.610Z,4.53
2018-06-25T15:16:51.299Z,3.97
2018-06-25T15:19:21.223Z,3.33
2018-06-25T15:21:52.674Z,4.83
2018-06-25T15:24:22.754Z,5.23
2018-06-25T15:26:54.993Z,5.23
2018-06-25T15:29:24.785Z,4.70
2018-06-25T15:31:55.769Z,5.77
2018-06-25T15:34:24.557Z,3.47
2018-06-25T15:36:58.616Z,7.33
2018-06-25T15:39:31.093Z,5.67
2018-06-25T15:42:00.625Z,5.03
2018-06-25T15:44:33.898Z,6.63
2018-06-25T15:47:05.339Z,5.63
2018-06-25T15:52:18.525Z,3.73
2018-06-25T15:54:48.462Z,3.70
2018-06-25T15:57:17.389Z,4.07
2018-06-25T15:59:46.906Z,3.47
2018-06-25T16:02:16.144Z,4.67
2018-06-25T16:04:45.439Z,4.73
2018-06-25T16:07:19.772Z,4.23
2018-06-25T16:09:50.773Z,7.33
2018-06-25T16:12:20.176Z,4.17
2018-06-25T16:14:49.662Z,4.80
2018-06-25T16:17:19.842Z,5.20
2018-06-25T16:19:51.299Z,5.17
2018-06-25T16:22:23.401Z,6.90
2018-06-25T16:24:52.812Z,4.07
2018-06-25T16:27:23.072Z,3.37
2018-06-25T16:29:57.160Z,4.17
2018-06-25T16:32:27.791Z,3.60
2018-06-25T16:35:28.132Z,5.17
2018-06-25T16:38:00.267Z,2.77
2018-06-25T16:40:31.844Z,4.20
2018-06-25T16:43:03.459Z,3.83
2018-06-25T16:45:33.944Z,7.17
2018-06-25T16:48:03.176Z,3.10
2018-06-25T16:50:33.259Z,4.87
2018-06-25T16:53:02.604Z,5.30
2018-06-25T16:55:34.401Z,5.47
2018-06-25T16:58:04.025Z,7.67
2018-06-25T17:00:33.712Z,4.00
2018-06-25T17:03:05.354Z,3.03
2018-06-25T17:05:39.051Z,2.23
2018-06-25T17:08:09.253Z,3.53
2018-06-25T17:10:38.714Z,2.03
2018-06-25T17:13:07.754Z,3.13
2018-06-25T17:15:44.949Z,4.37
2018-06-25T17:20:52.619Z,3.77
2018-06-25T17:23:23.689Z,4.57
2018-06-25T17:25:54.541Z,3.67
2018-06-25T17:28:25.300Z,3.57
2018-06-25T17:30:55.420Z,3.93
2018-06-25T17:33:26.429Z,3.63
2018-06-25T17:35:56.296Z,4.50
2018-06-25T17:38:26.202Z,5.03
2018-06-25T17:41:00.099Z,5.60
2018-06-25T17:43:32.926Z,5.37
2018-06-25T17:46:02.324Z,5.10
2018-06-25T17:48:33.930Z,5.53
2018-06-25T17:51:14.048Z,6.53
2018-06-25T17:54:03.209Z,3.80
2018-06-25T17:56:35.630Z,3.20
2018-06-25T17:59:08.098Z,3.17
2018-06-25T18:01:38.443Z,3.60
2018-06-25T18:04:08.390Z,3.93
2018-06-25T18:06:38.835Z,4.83
2018-06-25T18:09:11.308Z,3.50
2018-06-25T18:11:42.222Z,9.53
2018-06-25T18:14:14.788Z,3.93
2018-06-25T18:16:44.828Z,5.73
2018-06-25T18:19:15.429Z,5.20
2018-06-25T18:21:46.779Z,4.77
2018-06-25T18:24:17.252Z,4.57
2018-06-25T18:26:49.220Z,4.57
2018-06-25T18:29:22.810Z,6.50
2018-06-25T18:31:54.489Z,4.63
2018-06-25T18:34:28.601Z,4.93
2018-06-25T18:36:58.878Z,5.23
2018-06-25T18:39:30.767Z,5.57
2018-06-25T18:42:01.288Z,6.90
2018-06-25T18:44:32.279Z,5.53
2018-06-25T18:47:05.460Z,2.47
2018-06-25T18:49:37.007Z,3.10
2018-06-25T18:52:08.703Z,4.17
2018-06-25T18:54:40.014Z,6.20
2018-06-25T18:57:09.745Z,4.13
2018-06-25T18:59:40.172Z,4.83
2018-06-25T19:02:10.715Z,4.10
2018-06-25T19:04:40.347Z,5.67
2018-06-25T19:07:14.840Z,4.80
2018-06-25T19:09:47.590Z,5.93
2018-06-25T19:12:17.231Z,6.37
2018-06-25T19:14:46.753Z,7.73
2018-06-25T19:17:17.165Z,7.77
2018-06-25T19:19:52.103Z,5.23
2018-06-25T19:25:02.793Z,4.60
2018-06-25T19:27:35.220Z,5.70
2018-06-25T19:30:04.657Z,4.63
2018-06-25T19:32:37.981Z,6.80
2018-06-25T19:35:10.573Z,4.87
2018-06-25T19:37:39.831Z,4.30
2018-06-25T19:40:11.936Z,3.30
2018-06-25T19:42:42.163Z,6.03
2018-06-25T19:45:28.834Z,4.13
2018-06-25T19:48:01.149Z,4.83
2018-06-25T19:50:30.295Z,4.40
2018-06-25T19:53:03.570Z,4.50
2018-06-25T19:58:19.679Z,7.23
2018-06-25T20:00:49.435Z,5.67
2018-06-25T20:03:20.266Z,4.03
2018-06-25T20:05:51.253Z,4.47
2018-06-25T20:08:21.037Z,5.10
2018-06-25T20:10:59.711Z,4.77
2018-06-25T20:13:32.470Z,5.60
2018-06-25T20:16:08.293Z,7.53
2018-06-25T20:18:39.427Z,4.57
2018-06-25T20:21:14.664Z,5.53
2018-06-25T20:23:45.734Z,4.30
2018-06-25T20:26:15.257Z,5.17
2018-06-25T20:28:45.622Z,5.77
2018-06-25T20:31:16.054Z,6.23
2018-06-25T20:33:46.570Z,7.23
2018-06-25T20:36:16.281Z,6.77
2018-06-25T20:38:46.286Z,5.53
2018-06-25T20:41:16.246Z,7.07
2018-06-25T20:43:45.247Z,6.47
2018-06-25T20:46:15.687Z,5.13
2018-06-25T20:48:45.789Z,4.63
2018-06-25T20:51:15.061Z,6.60
2018-06-25T20:53:45.216Z,6.27
2018-06-25T20:56:14.321Z,7.13
2018-06-25T20:58:44.007Z,7.27
2018-06-25T21:01:15.733Z,5.63
2018-06-25T21:03:45.844Z,4.90
2018-06-25T21:06:21.155Z,5.93
2018-06-25T21:08:51.588Z,5.70
2018-06-25T21:11:23.194Z,3.77
2018-06-25T21:13:53.266Z,4.03
2018-06-25T21:16:24.109Z,3.40
2018-06-25T21:18:53.825Z,3.30
2018-06-25T21:21:23.388Z,4.23
2018-06-25T21:24:02.438Z,4.77
2018-06-25T21:26:31.785Z,2.43
2018-06-25T21:29:08.391Z,3.63
2018-06-25T21:31:39.358Z,5.60
2018-06-25T21:34:13.468Z,3.00
2018-06-25T21:36:44.152Z,4.07
2018-06-25T21:39:13.714Z,3.17
2018-06-25T21:41:44.192Z,7.77
2018-06-25T21:44:16.807Z,3.73
2018-06-25T21:46:46.582Z,5.03
2018-06-25T21:49:17.583Z,3.93
2018-06-25T21:51:48.036Z,5.03
2018-06-25T21:54:17.670Z,5.47
2018-06-25T21:56:50.196Z,5.07
2018-06-25T21:59:23.365Z,1.87
2018-06-25T22:01:56.169Z,3.80
2018-06-25T22:04:28.050Z,3.97
2018-06-25T22:06:57.917Z,3.50
2018-06-25T22:09:29.843Z,4.87
2018-06-25T22:11:59.368Z,3.53
2018-06-25T22:14:29.637Z,5.43
2018-06-25T22:16:59.774Z,2.30
2018-06-25T22:19:29.723Z,3.37
2018-06-25T22:22:00.119Z,2.47
2018-06-25T22:24:30.256Z,2.30
2018-06-25T22:27:01.178Z,2.90
2018-06-25T22:29:30.202Z,1.70
2018-06-25T22:32:00.110Z,3.73
2018-06-25T22:34:35.656Z,2.57
2018-06-25T22:37:06.315Z,2.90
2018-06-25T22:39:36.733Z,7.83
2018-06-25T22:42:06.470Z,3.03
2018-06-25T22:44:36.723Z,4.30
2018-06-25T22:47:11.372Z,2.47
2018-06-25T22:49:43.183Z,2.00
2018-06-25T22:52:12.512Z,2.73
2018-06-25T22:54:43.590Z,2.53
2018-06-25T22:57:13.643Z,5.47
2018-06-25T22:59:42.975Z,1.87
2018-06-25T23:02:12.581Z,3.37
2018-06-25T23:04:42.446Z,3.13
2018-06-25T23:07:14.576Z,4.17
2018-06-25T23:09:44.132Z,3.90
2018-06-25T23:12:14.203Z,3.60
2018-06-25T23:14:46.078Z,4.97
2018-06-25T23:17:15.555Z,2.30
2018-06-25T23:19:44.541Z,2.07
2018-06-25T23:22:14.413Z,3.40
2018-06-25T23:24:43.473Z,4.07
2018-06-25T23:27:16.528Z,3.13
2018-06-25T23:29:46.266Z,3.20
2018-06-25T23:32:18.592Z,2.93
2018-06-25T23:34:47.509Z,5.13
2018-06-25T23:37:25.616Z,2.83
2018-06-25T23:39:55.712Z,2.40
2018-06-25T23:42:24.705Z,3.40
2018-06-25T23:44:55.329Z,1.97
2018-06-25T23:47:24.678Z,3.10
2018-06-25T23:49:53.771Z,2.23
2018-06-25T23:52:27.853Z,3.17
2018-06-25T23:54:57.081Z,2.33
2018-06-25T23:57:29.648Z,5.37
2018-06-25T23:59:59.249Z,4.87
